sensor_id;sensor_type;location;lat;lon;timestamp;P1;durP1;ratioP1;P2;durP2;ratioP2
20207;SDS011;10263;48.716;8.760;2023-01-28T00:00:57;4.27;;;3.70;;
20207;SDS011;10263;48.716;8.760;2023-01-28T00:03:25;5.03;;;3.97;;
20207;SDS011;10263;48.716;8.760;2023-01-28T00:06:00;5.23;;;4.27;;
20207;SDS011;10263;48.716;8.760;2023-01-28T00:08:28;6.57;;;4.20;;
20207;SDS011;10263;48.716;8.760;2023-01-28T00:10:57;6.07;;;4.00;;
20207;SDS011;10263;48.716;8.760;2023-01-28T00:13:26;5.47;;;4.53;;
20207;SDS011;10263;48.716;8.760;2023-01-28T00:15:56;5.67;;;4.37;;
20207;SDS011;10263;48.716;8.760;2023-01-28T00:18:24;5.43;;;4.30;;
20207;SDS011;10263;48.716;8.760;2023-01-28T00:20:54;7.70;;;3.83;;
20207;SDS011;10263;48.716;8.760;2023-01-28T00:23:23;5.93;;;4.53;;
20207;SDS011;10263;48.716;8.760;2023-01-28T00:25:50;5.17;;;3.80;;
20207;SDS011;10263;48.716;8.760;2023-01-28T00:28:18;5.03;;;3.43;;
20207;SDS011;10263;48.716;8.760;2023-01-28T00:30:47;5.37;;;4.40;;
20207;SDS011;10263;48.716;8.760;2023-01-28T00:33:14;4.77;;;3.83;;
20207;SDS011;10263;48.716;8.760;2023-01-28T00:35:41;5.10;;;4.60;;
20207;SDS011;10263;48.716;8.760;2023-01-28T00:38:08;4.80;;;4.10;;
20207;SDS011;10263;48.716;8.760;2023-01-28T00:40:35;5.37;;;4.53;;
20207;SDS011;10263;48.716;8.760;2023-01-28T00:43:02;5.93;;;4.27;;
20207;SDS011;10263;48.716;8.760;2023-01-28T00:45:29;5.03;;;3.73;;
20207;SDS011;10263;48.716;8.760;2023-01-28T00:47:57;4.80;;;3.67;;
20207;SDS011;10263;48.716;8.760;2023-01-28T00:50:24;5.50;;;3.77;;
20207;SDS011;10263;48.716;8.760;2023-01-28T00:52:51;4.20;;;3.53;;
20207;SDS011;10263;48.716;8.760;2023-01-28T00:55:19;5.73;;;4.23;;
20207;SDS011;10263;48.716;8.760;2023-01-28T00:57:46;5.70;;;4.30;;
20207;SDS011;10263;48.716;8.760;2023-01-28T01:00:14;6.33;;;4.47;;
20207;SDS011;10263;48.716;8.760;2023-01-28T01:02:43;7.33;;;4.73;;
20207;SDS011;10263;48.716;8.760;2023-01-28T01:05:11;5.93;;;4.53;;
20207;SDS011;10263;48.716;8.760;2023-01-28T01:07:38;5.40;;;3.80;;
20207;SDS011;10263;48.716;8.760;2023-01-28T01:10:07;5.07;;;3.90;;
20207;SDS011;10263;48.716;8.760;2023-01-28T01:12:36;8.63;;;5.03;;
20207;SDS011;10263;48.716;8.760;2023-01-28T01:15:03;5.30;;;4.00;;
20207;SDS011;10263;48.716;8.760;2023-01-28T01:17:33;6.10;;;4.57;;
20207;SDS011;10263;48.716;8.760;2023-01-28T01:20:05;5.60;;;4.33;;
20207;SDS011;10263;48.716;8.760;2023-01-28T01:22:36;6.13;;;4.40;;
20207;SDS011;10263;48.716;8.760;2023-01-28T01:25:03;5.03;;;4.43;;
20207;SDS011;10263;48.716;8.760;2023-01-28T01:27:31;6.40;;;4.20;;
20207;SDS011;10263;48.716;8.760;2023-01-28T01:29:58;4.90;;;3.80;;
20207;SDS011;10263;48.716;8.760;2023-01-28T01:32:28;5.10;;;3.97;;
20207;SDS011;10263;48.716;8.760;2023-01-28T01:34:55;4.80;;;3.97;;
20207;SDS011;10263;48.716;8.760;2023-01-28T01:37:23;5.77;;;4.10;;
20207;SDS011;10263;48.716;8.760;2023-01-28T01:39:52;6.50;;;4.77;;
20207;SDS011;10263;48.716;8.760;2023-01-28T01:42:19;4.83;;;4.03;;
20207;SDS011;10263;48.716;8.760;2023-01-28T01:44:51;5.47;;;4.60;;
20207;SDS011;10263;48.716;8.760;2023-01-28T01:47:22;5.10;;;3.77;;
20207;SDS011;10263;48.716;8.760;2023-01-28T01:49:53;5.67;;;4.37;;
20207;SDS011;10263;48.716;8.760;2023-01-28T01:52:21;5.87;;;4.33;;
20207;SDS011;10263;48.716;8.760;2023-01-28T01:54:55;5.77;;;4.40;;
20207;SDS011;10263;48.716;8.760;2023-01-28T01:57:26;4.20;;;3.33;;
20207;SDS011;10263;48.716;8.760;2023-01-28T01:59:57;6.30;;;4.63;;
20207;SDS011;10263;48.716;8.760;2023-01-28T02:02:39;5.07;;;4.00;;
20207;SDS011;10263;48.716;8.760;2023-01-28T02:05:08;4.53;;;3.57;;
20207;SDS011;10263;48.716;8.760;2023-01-28T02:07:37;4.03;;;3.47;;
20207;SDS011;10263;48.716;8.760;2023-01-28T02:10:06;5.03;;;3.50;;
20207;SDS011;10263;48.716;8.760;2023-01-28T02:12:35;4.83;;;4.13;;
20207;SDS011;10263;48.716;8.760;2023-01-28T02:15:05;4.73;;;3.67;;
20207;SDS011;10263;48.716;8.760;2023-01-28T02:17:34;5.30;;;4.03;;
20207;SDS011;10263;48.716;8.760;2023-01-28T02:20:04;4.77;;;3.90;;
20207;SDS011;10263;48.716;8.760;2023-01-28T02:22:38;4.80;;;3.83;;
20207;SDS011;10263;48.716;8.760;2023-01-28T02:25:25;5.13;;;3.43;;
20207;SDS011;10263;48.716;8.760;2023-01-28T02:28:20;4.80;;;3.77;;
20207;SDS011;10263;48.716;8.760;2023-01-28T02:30:53;4.53;;;3.30;;
20207;SDS011;10263;48.716;8.760;2023-01-28T02:33:34;5.57;;;3.80;;
20207;SDS011;10263;48.716;8.760;2023-01-28T02:36:09;5.10;;;4.00;;
20207;SDS011;10263;48.716;8.760;2023-01-28T02:38:45;5.30;;;3.73;;
20207;SDS011;10263;48.716;8.760;2023-01-28T02:41:15;5.60;;;3.93;;
20207;SDS011;10263;48.716;8.760;2023-01-28T02:43:47;4.93;;;3.60;;
20207;SDS011;10263;48.716;8.760;2023-01-28T02:46:18;4.83;;;3.73;;
20207;SDS011;10263;48.716;8.760;2023-01-28T02:49:07;6.10;;;3.60;;
20207;SDS011;10263;48.716;8.760;2023-01-28T02:51:42;4.60;;;3.93;;
20207;SDS011;10263;48.716;8.760;2023-01-28T02:54:19;5.27;;;3.93;;
20207;SDS011;10263;48.716;8.760;2023-01-28T02:56:55;3.60;;;2.90;;
20207;SDS011;10263;48.716;8.760;2023-01-28T02:59:34;5.93;;;4.10;;
20207;SDS011;10263;48.716;8.760;2023-01-28T03:02:10;4.87;;;3.30;;
20207;SDS011;10263;48.716;8.760;2023-01-28T03:04:43;4.60;;;3.80;;
20207;SDS011;10263;48.716;8.760;2023-01-28T03:07:13;4.97;;;3.90;;
20207;SDS011;10263;48.716;8.760;2023-01-28T03:09:42;4.37;;;3.23;;
20207;SDS011;10263;48.716;8.760;2023-01-28T03:12:11;5.67;;;3.90;;
20207;SDS011;10263;48.716;8.760;2023-01-28T03:15:02;5.00;;;3.80;;
20207;SDS011;10263;48.716;8.760;2023-01-28T03:17:51;4.03;;;3.30;;
20207;SDS011;10263;48.716;8.760;2023-01-28T03:20:46;5.93;;;4.07;;
20207;SDS011;10263;48.716;8.760;2023-01-28T03:23:36;4.80;;;3.80;;
20207;SDS011;10263;48.716;8.760;2023-01-28T03:26:27;4.50;;;3.70;;
20207;SDS011;10263;48.716;8.760;2023-01-28T03:29:15;5.80;;;4.10;;
20207;SDS011;10263;48.716;8.760;2023-01-28T03:32:05;8.57;;;4.27;;
20207;SDS011;10263;48.716;8.760;2023-01-28T03:34:49;5.73;;;4.60;;
20207;SDS011;10263;48.716;8.760;2023-01-28T03:37:37;4.93;;;3.70;;
20207;SDS011;10263;48.716;8.760;2023-01-28T03:40:19;4.83;;;4.33;;
20207;SDS011;10263;48.716;8.760;2023-01-28T03:42:46;5.87;;;4.13;;
20207;SDS011;10263;48.716;8.760;2023-01-28T03:45:30;5.93;;;3.60;;
20207;SDS011;10263;48.716;8.760;2023-01-28T03:47:58;7.47;;;4.93;;
20207;SDS011;10263;48.716;8.760;2023-01-28T03:50:25;7.13;;;4.73;;
20207;SDS011;10263;48.716;8.760;2023-01-28T03:52:57;5.83;;;4.70;;
20207;SDS011;10263;48.716;8.760;2023-01-28T03:55:41;6.67;;;4.70;;
20207;SDS011;10263;48.716;8.760;2023-01-28T03:58:10;5.90;;;4.63;;
20207;SDS011;10263;48.716;8.760;2023-01-28T04:00:37;6.93;;;5.17;;
20207;SDS011;10263;48.716;8.760;2023-01-28T04:03:06;5.97;;;4.70;;
20207;SDS011;10263;48.716;8.760;2023-01-28T04:05:43;6.07;;;4.70;;
20207;SDS011;10263;48.716;8.760;2023-01-28T04:08:11;6.50;;;4.60;;
20207;SDS011;10263;48.716;8.760;2023-01-28T04:10:59;5.30;;;4.50;;
20207;SDS011;10263;48.716;8.760;2023-01-28T04:13:39;7.83;;;5.00;;
20207;SDS011;10263;48.716;8.760;2023-01-28T04:16:07;6.10;;;5.30;;
20207;SDS011;10263;48.716;8.760;2023-01-28T04:18:39;7.97;;;5.60;;
20207;SDS011;10263;48.716;8.760;2023-01-28T04:21:06;5.77;;;4.70;;
20207;SDS011;10263;48.716;8.760;2023-01-28T04:23:35;6.40;;;4.43;;
20207;SDS011;10263;48.716;8.760;2023-01-28T04:26:02;7.03;;;5.10;;
20207;SDS011;10263;48.716;8.760;2023-01-28T04:28:29;6.20;;;4.90;;
20207;SDS011;10263;48.716;8.760;2023-01-28T04:30:58;5.43;;;4.70;;
20207;SDS011;10263;48.716;8.760;2023-01-28T04:33:50;7.50;;;5.33;;
20207;SDS011;10263;48.716;8.760;2023-01-28T04:36:24;7.83;;;5.87;;
20207;SDS011;10263;48.716;8.760;2023-01-28T04:39:06;5.87;;;4.67;;
20207;SDS011;10263;48.716;8.760;2023-01-28T04:41:35;6.73;;;4.63;;
20207;SDS011;10263;48.716;8.760;2023-01-28T04:44:09;6.10;;;4.40;;
20207;SDS011;10263;48.716;8.760;2023-01-28T04:47:07;5.60;;;4.60;;
20207;SDS011;10263;48.716;8.760;2023-01-28T04:49:48;6.47;;;5.00;;
20207;SDS011;10263;48.716;8.760;2023-01-28T04:52:34;7.57;;;4.87;;
20207;SDS011;10263;48.716;8.760;2023-01-28T04:55:18;7.13;;;5.33;;
20207;SDS011;10263;48.716;8.760;2023-01-28T04:57:46;5.33;;;4.27;;
20207;SDS011;10263;48.716;8.760;2023-01-28T05:00:13;6.57;;;5.17;;
20207;SDS011;10263;48.716;8.760;2023-01-28T05:02:40;7.73;;;5.70;;
20207;SDS011;10263;48.716;8.760;2023-01-28T05:05:07;7.93;;;5.33;;
20207;SDS011;10263;48.716;8.760;2023-01-28T05:07:43;5.83;;;4.83;;
20207;SDS011;10263;48.716;8.760;2023-01-28T05:10:15;6.10;;;4.47;;
20207;SDS011;10263;48.716;8.760;2023-01-28T05:12:45;6.73;;;5.13;;
20207;SDS011;10263;48.716;8.760;2023-01-28T05:15:12;6.27;;;5.10;;
20207;SDS011;10263;48.716;8.760;2023-01-28T05:17:39;6.00;;;4.53;;
20207;SDS011;10263;48.716;8.760;2023-01-28T05:20:09;7.73;;;5.63;;
20207;SDS011;10263;48.716;8.760;2023-01-28T05:22:37;6.87;;;5.30;;
20207;SDS011;10263;48.716;8.760;2023-01-28T05:25:13;6.33;;;5.13;;
20207;SDS011;10263;48.716;8.760;2023-01-28T05:27:40;6.70;;;5.17;;
20207;SDS011;10263;48.716;8.760;2023-01-28T05:30:09;6.97;;;5.00;;
20207;SDS011;10263;48.716;8.760;2023-01-28T05:32:36;7.00;;;5.33;;
20207;SDS011;10263;48.716;8.760;2023-01-28T05:35:04;6.90;;;5.40;;
20207;SDS011;10263;48.716;8.760;2023-01-28T05:37:32;8.57;;;6.53;;
20207;SDS011;10263;48.716;8.760;2023-01-28T05:40:00;6.57;;;5.43;;
20207;SDS011;10263;48.716;8.760;2023-01-28T05:42:27;7.33;;;5.87;;
20207;SDS011;10263;48.716;8.760;2023-01-28T05:45:10;7.37;;;5.97;;
20207;SDS011;10263;48.716;8.760;2023-01-28T05:47:59;6.70;;;5.23;;
20207;SDS011;10263;48.716;8.760;2023-01-28T05:50:45;8.40;;;6.17;;
20207;SDS011;10263;48.716;8.760;2023-01-28T05:53:18;7.63;;;5.97;;
20207;SDS011;10263;48.716;8.760;2023-01-28T05:55:46;8.97;;;6.33;;
20207;SDS011;10263;48.716;8.760;2023-01-28T05:58:14;10.43;;;6.37;;
20207;SDS011;10263;48.716;8.760;2023-01-28T06:00:42;8.83;;;6.57;;
20207;SDS011;10263;48.716;8.760;2023-01-28T06:03:10;9.07;;;6.17;;
20207;SDS011;10263;48.716;8.760;2023-01-28T06:05:38;8.53;;;6.47;;
20207;SDS011;10263;48.716;8.760;2023-01-28T06:08:06;9.53;;;6.80;;
20207;SDS011;10263;48.716;8.760;2023-01-28T06:10:34;10.40;;;6.87;;
20207;SDS011;10263;48.716;8.760;2023-01-28T06:13:01;9.00;;;6.40;;
20207;SDS011;10263;48.716;8.760;2023-01-28T06:15:28;12.33;;;7.23;;
20207;SDS011;10263;48.716;8.760;2023-01-28T06:18:26;9.80;;;6.93;;
20207;SDS011;10263;48.716;8.760;2023-01-28T06:20:53;9.57;;;7.00;;
20207;SDS011;10263;48.716;8.760;2023-01-28T06:23:19;8.17;;;6.63;;
20207;SDS011;10263;48.716;8.760;2023-01-28T06:25:47;9.40;;;6.67;;
20207;SDS011;10263;48.716;8.760;2023-01-28T06:28:20;9.53;;;7.33;;
20207;SDS011;10263;48.716;8.760;2023-01-28T06:30:48;11.23;;;7.07;;
20207;SDS011;10263;48.716;8.760;2023-01-28T06:33:16;8.10;;;6.37;;
20207;SDS011;10263;48.716;8.760;2023-01-28T06:35:44;9.43;;;7.23;;
20207;SDS011;10263;48.716;8.760;2023-01-28T06:38:11;8.63;;;6.97;;
20207;SDS011;10263;48.716;8.760;2023-01-28T06:40:38;10.50;;;7.10;;
20207;SDS011;10263;48.716;8.760;2023-01-28T06:43:06;8.80;;;6.33;;
20207;SDS011;10263;48.716;8.760;2023-01-28T06:45:33;9.03;;;5.53;;
20207;SDS011;10263;48.716;8.760;2023-01-28T06:48:00;8.30;;;6.53;;
20207;SDS011;10263;48.716;8.760;2023-01-28T06:50:27;10.87;;;7.27;;
20207;SDS011;10263;48.716;8.760;2023-01-28T06:52:55;8.40;;;6.27;;
20207;SDS011;10263;48.716;8.760;2023-01-28T06:55:22;8.27;;;6.60;;
20207;SDS011;10263;48.716;8.760;2023-01-28T06:57:49;8.97;;;6.20;;
20207;SDS011;10263;48.716;8.760;2023-01-28T07:00:17;7.57;;;6.43;;
20207;SDS011;10263;48.716;8.760;2023-01-28T07:02:44;8.33;;;6.83;;
20207;SDS011;10263;48.716;8.760;2023-01-28T07:05:11;9.13;;;7.20;;
20207;SDS011;10263;48.716;8.760;2023-01-28T07:07:38;10.70;;;7.10;;
20207;SDS011;10263;48.716;8.760;2023-01-28T07:10:07;8.97;;;6.97;;
20207;SDS011;10263;48.716;8.760;2023-01-28T07:12:35;10.50;;;7.57;;
20207;SDS011;10263;48.716;8.760;2023-01-28T07:15:02;7.80;;;6.70;;
20207;SDS011;10263;48.716;8.760;2023-01-28T07:17:30;9.33;;;6.90;;
20207;SDS011;10263;48.716;8.760;2023-01-28T07:19:57;7.67;;;6.27;;
20207;SDS011;10263;48.716;8.760;2023-01-28T07:22:24;9.93;;;7.23;;
20207;SDS011;10263;48.716;8.760;2023-01-28T07:24:51;7.90;;;6.23;;
20207;SDS011;10263;48.716;8.760;2023-01-28T07:27:20;8.77;;;6.50;;
20207;SDS011;10263;48.716;8.760;2023-01-28T07:29:46;8.57;;;6.67;;
20207;SDS011;10263;48.716;8.760;2023-01-28T07:32:13;10.20;;;6.47;;
20207;SDS011;10263;48.716;8.760;2023-01-28T07:34:40;9.40;;;6.77;;
20207;SDS011;10263;48.716;8.760;2023-01-28T07:37:08;8.73;;;6.70;;
20207;SDS011;10263;48.716;8.760;2023-01-28T07:39:35;10.60;;;7.27;;
20207;SDS011;10263;48.716;8.760;2023-01-28T07:42:02;9.33;;;6.87;;
20207;SDS011;10263;48.716;8.760;2023-01-28T07:44:35;8.13;;;7.07;;
20207;SDS011;10263;48.716;8.760;2023-01-28T07:47:03;8.87;;;6.70;;
20207;SDS011;10263;48.716;8.760;2023-01-28T07:49:30;8.20;;;6.20;;
20207;SDS011;10263;48.716;8.760;2023-01-28T07:51:58;9.67;;;7.30;;
20207;SDS011;10263;48.716;8.760;2023-01-28T07:54:26;8.87;;;7.03;;
20207;SDS011;10263;48.716;8.760;2023-01-28T07:56:53;9.60;;;7.03;;
20207;SDS011;10263;48.716;8.760;2023-01-28T07:59:21;10.00;;;6.77;;
20207;SDS011;10263;48.716;8.760;2023-01-28T08:01:49;9.60;;;7.37;;
20207;SDS011;10263;48.716;8.760;2023-01-28T08:04:17;10.60;;;7.33;;
20207;SDS011;10263;48.716;8.760;2023-01-28T08:06:44;10.13;;;7.40;;
20207;SDS011;10263;48.716;8.760;2023-01-28T08:09:11;9.53;;;6.67;;
20207;SDS011;10263;48.716;8.760;2023-01-28T08:11:39;10.33;;;8.03;;
20207;SDS011;10263;48.716;8.760;2023-01-28T08:14:06;9.80;;;7.13;;
20207;SDS011;10263;48.716;8.760;2023-01-28T08:16:33;11.80;;;7.67;;
20207;SDS011;10263;48.716;8.760;2023-01-28T08:19:02;11.53;;;7.23;;
20207;SDS011;10263;48.716;8.760;2023-01-28T08:21:29;9.83;;;7.70;;
20207;SDS011;10263;48.716;8.760;2023-01-28T08:23:56;9.07;;;6.60;;
20207;SDS011;10263;48.716;8.760;2023-01-28T08:26:23;10.20;;;7.47;;
20207;SDS011;10263;48.716;8.760;2023-01-28T08:28:50;10.17;;;7.67;;
20207;SDS011;10263;48.716;8.760;2023-01-28T08:31:17;9.17;;;7.37;;
20207;SDS011;10263;48.716;8.760;2023-01-28T08:33:44;9.67;;;7.70;;
20207;SDS011;10263;48.716;8.760;2023-01-28T08:36:12;9.17;;;7.13;;
20207;SDS011;10263;48.716;8.760;2023-01-28T08:38:39;9.53;;;6.87;;
20207;SDS011;10263;48.716;8.760;2023-01-28T08:41:07;9.27;;;6.17;;
20207;SDS011;10263;48.716;8.760;2023-01-28T08:43:34;9.90;;;7.53;;
20207;SDS011;10263;48.716;8.760;2023-01-28T08:46:03;8.33;;;6.80;;
20207;SDS011;10263;48.716;8.760;2023-01-28T08:48:30;9.60;;;7.43;;
20207;SDS011;10263;48.716;8.760;2023-01-28T08:50:57;10.73;;;7.57;;
20207;SDS011;10263;48.716;8.760;2023-01-28T08:53:26;10.03;;;7.23;;
20207;SDS011;10263;48.716;8.760;2023-01-28T08:55:53;11.77;;;7.40;;
20207;SDS011;10263;48.716;8.760;2023-01-28T08:58:20;13.20;;;7.20;;
20207;SDS011;10263;48.716;8.760;2023-01-28T09:00:47;10.57;;;7.63;;
20207;SDS011;10263;48.716;8.760;2023-01-28T09:03:14;9.00;;;7.03;;
20207;SDS011;10263;48.716;8.760;2023-01-28T09:05:42;8.50;;;6.90;;
20207;SDS011;10263;48.716;8.760;2023-01-28T09:08:10;10.37;;;7.13;;
20207;SDS011;10263;48.716;8.760;2023-01-28T09:10:40;8.50;;;6.20;;
20207;SDS011;10263;48.716;8.760;2023-01-28T09:13:07;12.60;;;6.37;;
20207;SDS011;10263;48.716;8.760;2023-01-28T09:15:36;9.23;;;6.90;;
20207;SDS011;10263;48.716;8.760;2023-01-28T09:18:03;9.07;;;6.70;;
20207;SDS011;10263;48.716;8.760;2023-01-28T09:20:30;9.63;;;7.10;;
20207;SDS011;10263;48.716;8.760;2023-01-28T09:22:58;10.23;;;7.70;;
20207;SDS011;10263;48.716;8.760;2023-01-28T09:25:25;8.70;;;6.93;;
20207;SDS011;10263;48.716;8.760;2023-01-28T09:27:53;8.87;;;6.80;;
20207;SDS011;10263;48.716;8.760;2023-01-28T09:30:20;11.03;;;7.10;;
20207;SDS011;10263;48.716;8.760;2023-01-28T09:32:48;8.90;;;6.43;;
20207;SDS011;10263;48.716;8.760;2023-01-28T09:35:16;10.60;;;7.20;;
20207;SDS011;10263;48.716;8.760;2023-01-28T09:37:43;8.33;;;7.17;;
20207;SDS011;10263;48.716;8.760;2023-01-28T09:40:11;8.73;;;6.77;;
20207;SDS011;10263;48.716;8.760;2023-01-28T09:42:45;10.03;;;7.00;;
20207;SDS011;10263;48.716;8.760;2023-01-28T09:45:26;9.67;;;7.07;;
20207;SDS011;10263;48.716;8.760;2023-01-28T09:48:01;8.43;;;6.73;;
20207;SDS011;10263;48.716;8.760;2023-01-28T09:50:31;7.90;;;6.20;;
20207;SDS011;10263;48.716;8.760;2023-01-28T09:53:00;9.80;;;6.93;;
20207;SDS011;10263;48.716;8.760;2023-01-28T09:55:32;7.83;;;6.27;;
20207;SDS011;10263;48.716;8.760;2023-01-28T09:58:02;10.70;;;6.67;;
20207;SDS011;10263;48.716;8.760;2023-01-28T10:00:35;10.43;;;6.80;;
20207;SDS011;10263;48.716;8.760;2023-01-28T10:03:12;11.00;;;7.73;;
20207;SDS011;10263;48.716;8.760;2023-01-28T10:06:00;10.20;;;6.80;;
20207;SDS011;10263;48.716;8.760;2023-01-28T10:08:47;9.47;;;7.20;;
20207;SDS011;10263;48.716;8.760;2023-01-28T10:11:38;11.37;;;7.63;;
20207;SDS011;10263;48.716;8.760;2023-01-28T10:14:16;9.23;;;7.07;;
20207;SDS011;10263;48.716;8.760;2023-01-28T10:16:58;10.17;;;8.23;;
20207;SDS011;10263;48.716;8.760;2023-01-28T10:19:31;12.13;;;8.53;;
20207;SDS011;10263;48.716;8.760;2023-01-28T10:22:03;10.47;;;7.57;;
20207;SDS011;10263;48.716;8.760;2023-01-28T10:24:33;12.70;;;8.43;;
20207;SDS011;10263;48.716;8.760;2023-01-28T10:27:01;12.03;;;7.67;;
20207;SDS011;10263;48.716;8.760;2023-01-28T10:29:34;11.77;;;6.83;;
20207;SDS011;10263;48.716;8.760;2023-01-28T10:32:12;9.00;;;7.40;;
20207;SDS011;10263;48.716;8.760;2023-01-28T10:34:44;10.60;;;7.67;;
20207;SDS011;10263;48.716;8.760;2023-01-28T10:37:11;9.00;;;6.70;;
20207;SDS011;10263;48.716;8.760;2023-01-28T10:39:39;9.70;;;7.83;;
20207;SDS011;10263;48.716;8.760;2023-01-28T10:42:12;12.87;;;7.80;;
20207;SDS011;10263;48.716;8.760;2023-01-28T10:44:45;10.10;;;7.60;;
20207;SDS011;10263;48.716;8.760;2023-01-28T10:47:16;9.33;;;7.07;;
20207;SDS011;10263;48.716;8.760;2023-01-28T10:49:53;8.90;;;6.53;;
20207;SDS011;10263;48.716;8.760;2023-01-28T10:52:23;11.37;;;7.40;;
20207;SDS011;10263;48.716;8.760;2023-01-28T10:54:57;11.17;;;7.83;;
20207;SDS011;10263;48.716;8.760;2023-01-28T10:57:25;11.87;;;7.93;;
20207;SDS011;10263;48.716;8.760;2023-01-28T10:59:52;9.57;;;7.33;;
20207;SDS011;10263;48.716;8.760;2023-01-28T11:02:23;9.43;;;6.43;;
20207;SDS011;10263;48.716;8.760;2023-01-28T11:05:00;10.20;;;6.53;;
20207;SDS011;10263;48.716;8.760;2023-01-28T11:07:29;12.80;;;6.00;;
20207;SDS011;10263;48.716;8.760;2023-01-28T11:09:56;9.53;;;6.90;;
20207;SDS011;10263;48.716;8.760;2023-01-28T11:12:24;9.77;;;7.17;;
20207;SDS011;10263;48.716;8.760;2023-01-28T11:14:53;11.83;;;8.37;;
20207;SDS011;10263;48.716;8.760;2023-01-28T11:17:23;10.87;;;7.13;;
20207;SDS011;10263;48.716;8.760;2023-01-28T11:19:53;9.57;;;6.77;;
20207;SDS011;10263;48.716;8.760;2023-01-28T11:22:23;10.00;;;7.17;;
20207;SDS011;10263;48.716;8.760;2023-01-28T11:24:55;10.43;;;7.60;;
20207;SDS011;10263;48.716;8.760;2023-01-28T11:27:23;10.90;;;7.77;;
20207;SDS011;10263;48.716;8.760;2023-01-28T11:29:55;10.07;;;7.30;;
20207;SDS011;10263;48.716;8.760;2023-01-28T11:32:27;9.03;;;6.87;;
20207;SDS011;10263;48.716;8.760;2023-01-28T11:34:55;10.00;;;7.50;;
20207;SDS011;10263;48.716;8.760;2023-01-28T11:37:24;8.73;;;6.93;;
20207;SDS011;10263;48.716;8.760;2023-01-28T11:40:03;9.33;;;6.90;;
20207;SDS011;10263;48.716;8.760;2023-01-28T11:42:41;9.33;;;7.33;;
20207;SDS011;10263;48.716;8.760;2023-01-28T11:45:09;9.43;;;6.60;;
20207;SDS011;10263;48.716;8.760;2023-01-28T11:47:45;9.87;;;7.33;;
20207;SDS011;10263;48.716;8.760;2023-01-28T11:50:27;10.43;;;7.30;;
20207;SDS011;10263;48.716;8.760;2023-01-28T11:53:09;12.30;;;7.00;;
20207;SDS011;10263;48.716;8.760;2023-01-28T11:56:07;9.93;;;7.00;;
20207;SDS011;10263;48.716;8.760;2023-01-28T11:58:50;11.23;;;7.40;;
20207;SDS011;10263;48.716;8.760;2023-01-28T12:01:27;11.37;;;7.63;;
20207;SDS011;10263;48.716;8.760;2023-01-28T12:04:13;10.40;;;7.63;;
20207;SDS011;10263;48.716;8.760;2023-01-28T12:06:53;9.00;;;6.57;;
20207;SDS011;10263;48.716;8.760;2023-01-28T12:09:38;12.30;;;8.03;;
20207;SDS011;10263;48.716;8.760;2023-01-28T12:12:19;11.27;;;7.93;;
20207;SDS011;10263;48.716;8.760;2023-01-28T12:18:18;10.00;;;7.53;;
20207;SDS011;10263;48.716;8.760;2023-01-28T12:20:56;10.80;;;7.60;;
20207;SDS011;10263;48.716;8.760;2023-01-28T12:23:39;12.50;;;8.20;;
20207;SDS011;10263;48.716;8.760;2023-01-28T12:26:22;10.97;;;7.50;;
20207;SDS011;10263;48.716;8.760;2023-01-28T12:29:02;10.77;;;7.67;;
20207;SDS011;10263;48.716;8.760;2023-01-28T12:31:41;10.23;;;7.27;;
20207;SDS011;10263;48.716;8.760;2023-01-28T12:34:28;11.10;;;7.50;;
20207;SDS011;10263;48.716;8.760;2023-01-28T12:37:21;8.47;;;6.30;;
20207;SDS011;10263;48.716;8.760;2023-01-28T12:39:59;12.23;;;7.60;;
20207;SDS011;10263;48.716;8.760;2023-01-28T12:42:36;10.23;;;7.13;;
20207;SDS011;10263;48.716;8.760;2023-01-28T12:45:11;10.87;;;8.07;;
20207;SDS011;10263;48.716;8.760;2023-01-28T12:47:44;9.90;;;7.63;;
20207;SDS011;10263;48.716;8.760;2023-01-28T12:50:17;10.47;;;7.33;;
20207;SDS011;10263;48.716;8.760;2023-01-28T12:52:49;10.70;;;7.00;;
20207;SDS011;10263;48.716;8.760;2023-01-28T12:55:21;11.47;;;7.53;;
20207;SDS011;10263;48.716;8.760;2023-01-28T12:58:00;11.70;;;7.80;;
20207;SDS011;10263;48.716;8.760;2023-01-28T13:00:31;11.13;;;7.33;;
20207;SDS011;10263;48.716;8.760;2023-01-28T13:03:08;10.47;;;6.73;;
20207;SDS011;10263;48.716;8.760;2023-01-28T13:05:42;9.80;;;6.90;;
20207;SDS011;10263;48.716;8.760;2023-01-28T13:08:16;9.17;;;6.33;;
20207;SDS011;10263;48.716;8.760;2023-01-28T13:10:46;12.37;;;6.63;;
20207;SDS011;10263;48.716;8.760;2023-01-28T13:13:15;9.90;;;6.30;;
20207;SDS011;10263;48.716;8.760;2023-01-28T13:15:45;8.17;;;6.17;;
20207;SDS011;10263;48.716;8.760;2023-01-28T13:18:28;9.50;;;6.47;;
20207;SDS011;10263;48.716;8.760;2023-01-28T13:20:58;9.30;;;6.43;;
20207;SDS011;10263;48.716;8.760;2023-01-28T13:23:35;11.03;;;6.83;;
20207;SDS011;10263;48.716;8.760;2023-01-28T13:29:05;8.03;;;5.73;;
20207;SDS011;10263;48.716;8.760;2023-01-28T13:31:38;8.13;;;5.83;;
20207;SDS011;10263;48.716;8.760;2023-01-28T13:34:06;10.13;;;7.40;;
20207;SDS011;10263;48.716;8.760;2023-01-28T13:36:36;9.37;;;6.17;;
20207;SDS011;10263;48.716;8.760;2023-01-28T13:39:14;10.03;;;6.00;;
20207;SDS011;10263;48.716;8.760;2023-01-28T13:41:45;7.97;;;5.83;;
20207;SDS011;10263;48.716;8.760;2023-01-28T13:44:17;8.97;;;5.20;;
20207;SDS011;10263;48.716;8.760;2023-01-28T13:46:45;6.40;;;4.63;;
20207;SDS011;10263;48.716;8.760;2023-01-28T13:49:13;8.80;;;5.83;;
20207;SDS011;10263;48.716;8.760;2023-01-28T13:51:46;6.53;;;4.63;;
20207;SDS011;10263;48.716;8.760;2023-01-28T13:54:25;5.33;;;4.27;;
20207;SDS011;10263;48.716;8.760;2023-01-28T13:56:57;6.47;;;5.07;;
20207;SDS011;10263;48.716;8.760;2023-01-28T13:59:46;5.40;;;4.47;;
20207;SDS011;10263;48.716;8.760;2023-01-28T14:05:23;4.47;;;3.27;;
20207;SDS011;10263;48.716;8.760;2023-01-28T14:08:24;5.93;;;3.90;;
20207;SDS011;10263;48.716;8.760;2023-01-28T14:11:16;6.50;;;4.93;;
20207;SDS011;10263;48.716;8.760;2023-01-28T14:14:05;6.40;;;4.97;;
20207;SDS011;10263;48.716;8.760;2023-01-28T14:16:57;5.07;;;4.13;;
20207;SDS011;10263;48.716;8.760;2023-01-28T14:19:31;5.47;;;4.57;;
20207;SDS011;10263;48.716;8.760;2023-01-28T14:22:05;6.53;;;4.67;;
20207;SDS011;10263;48.716;8.760;2023-01-28T14:24:32;7.73;;;5.33;;
20207;SDS011;10263;48.716;8.760;2023-01-28T14:27:03;6.47;;;5.10;;
20207;SDS011;10263;48.716;8.760;2023-01-28T14:29:43;7.23;;;5.67;;
20207;SDS011;10263;48.716;8.760;2023-01-28T14:32:17;6.93;;;5.87;;
20207;SDS011;10263;48.716;8.760;2023-01-28T14:34:46;7.63;;;4.87;;
20207;SDS011;10263;48.716;8.760;2023-01-28T14:37:14;5.47;;;4.60;;
20207;SDS011;10263;48.716;8.760;2023-01-28T14:39:44;7.33;;;5.60;;
20207;SDS011;10263;48.716;8.760;2023-01-28T14:42:18;7.97;;;5.53;;
20207;SDS011;10263;48.716;8.760;2023-01-28T14:44:48;7.40;;;5.63;;
20207;SDS011;10263;48.716;8.760;2023-01-28T14:47:41;7.50;;;5.27;;
20207;SDS011;10263;48.716;8.760;2023-01-28T14:50:25;9.03;;;5.53;;
20207;SDS011;10263;48.716;8.760;2023-01-28T14:53:19;7.33;;;5.93;;
20207;SDS011;10263;48.716;8.760;2023-01-28T14:56:21;9.73;;;6.30;;
20207;SDS011;10263;48.716;8.760;2023-01-28T14:59:01;11.17;;;6.80;;
20207;SDS011;10263;48.716;8.760;2023-01-28T15:01:35;8.50;;;6.10;;
20207;SDS011;10263;48.716;8.760;2023-01-28T15:04:20;12.80;;;7.70;;
20207;SDS011;10263;48.716;8.760;2023-01-28T15:06:51;8.83;;;6.47;;
20207;SDS011;10263;48.716;8.760;2023-01-28T15:09:19;9.50;;;7.03;;
20207;SDS011;10263;48.716;8.760;2023-01-28T15:11:47;9.37;;;6.37;;
20207;SDS011;10263;48.716;8.760;2023-01-28T15:14:20;12.27;;;6.70;;
20207;SDS011;10263;48.716;8.760;2023-01-28T15:16:51;9.23;;;7.00;;
20207;SDS011;10263;48.716;8.760;2023-01-28T15:19:22;10.40;;;7.50;;
20207;SDS011;10263;48.716;8.760;2023-01-28T15:21:53;9.33;;;7.60;;
20207;SDS011;10263;48.716;8.760;2023-01-28T15:24:21;9.13;;;7.00;;
20207;SDS011;10263;48.716;8.760;2023-01-28T15:26:48;14.83;;;7.47;;